Tuesday, November 25, 2014
00:28 UTC
  |  Log In   |  Register Free
Airport Search:

Heart Of Georgia Regional Airport
(KEZM)

FAA data valid effective November 13, 2014 - January 08, 2015 (unless otherwise noted).

 
 
 
 
 
 
 
 
 
 
 
 
 
 

Current Aviation Weather for Heart Of Georgia Regional Airport (KEZM)

The most recent METAR observation for KEZM was updated at: 0020
METAR Summary (Translated METAR)
KEZM
242355Z AUTO 21004KT 10SM SCT006 BKN014 20/20 A2994 RMK AO2 T01950195 10235 20195
KDBN
242355Z AUTO 19010KT 7SM BKN006 OVC010 19/19 A2994 RMK AO2 LTG DSNT E AND SE
(22.1 nm NE from KEZM)
KAZE
242355Z AUTO 00000KT 5SM BR SCT100 19/19 A2992 RMK AO2 T01870187 10328 21050
(31.6 nm SE from KEZM)
TAF
No TAF information found within 50 nm of KEZM
  Airport Weather Conditions for KEZM

 Current Weather at EZM
67° F
Mostly Cloudy
Southwest winds at 4.6 mph
EZM NOAA Radar

Pressure: 29.94 in
Humidity: 100%
Wind: Southwest at 4.6 MPH (4 KT)
Dew Point: 67.1°F
Visibility: 10.00 mi


Airport Weather Forecast for KEZM

Translated METAR and TAF for KEZM
Translated METAR for KEZM (0023 UTC 25 November 2014)
found at http://aviationweather.gov/adds/metars/
 
METAR text: KEZM 250015Z AUTO 20003KT 10SM SCT120 20/20 A2994 RMK AO2 LTG DSNT E T01950195
Conditions at: KEZM (EASTMAN , GA, US) observed 0015 UTC 25 November 2014
Temperature: 19.5°C (67°F)
Dewpoint: 19.5°C (67°F) [RH = 100%]
Pressure (altimeter): 29.94 inches Hg (1014.0 mb)
Winds: from the SSW (200 degrees) at 3 MPH (3 knots; 1.6 m/s)
Visibility: 10 or more miles (16+ km)
Ceiling: at least 12,000 feet AGL
Clouds: scattered clouds at 12000 feet AGL
Weather: automated observation with no human augmentation;
there may or may not be significant weather present at this time
Translated TAF for KEZM

There is no translated TAF available for this airport

Find All Airport Services Find A Hotel Find A Rental Car Find A Golf Course Find A Restaurant $100 Hamburger



FBO's on the Field
FBO Company Facility Photos Services Transportation Aviation Fuel Prices: Prices include tax
Catering Weather Repair Courtesy Rental Type 100LL JetA JetA+ MOGAS 8087
 
Heart of Georgia Regional Airport

This FBO has not yet been rated
FS:Phillips 66
Last Updated: Nov-18
Login to update fuel prices
SS:
Contact Heart of Georgia Regional AirportMore FBO Information
 
Add another FBO Facility Photos Catering Weather Repair Courtesy Rental Type 100LL JetA JetA+ MOGAS 8087
Services Transportation Aviation Fuel Prices: Prices include tax


model-print
model-print
model-print
model-print